Time;durP1;ratioP1;P1;durP2;ratioP2;P2;SDS_P1;SDS_P2;PMS_P1;PMS_P2;Temp;Humidity;BMP_temperature;BMP_pressure;BME280_temperature;BME280_humidity;BME280_pressure;Samples;Min_cycle;Max_cycle;Signal;HPM_P1;HPM_P2
2022/06/26 00:01:06;;;;;;;13.00;5.50;;;;;;;20.19;66.22;99246.36;25081;1314;3052497;-59
2022/06/26 00:03:36;;;;;;;9.50;5.40;;;;;;;19.99;66.88;99249.17;25002;1314;3026319;-57
2022/06/26 00:06:05;;;;;;;15.10;5.30;;;;;;;19.74;67.54;99252.21;25088;1315;3054626;-58
2022/06/26 00:08:34;;;;;;;11.70;4.60;;;;;;;19.64;67.80;99256.61;25024;1316;3026845;-56
2022/06/26 00:11:03;;;;;;;8.00;4.60;;;;;;;19.54;67.97;99255.65;25037;1315;3026314;-59
2022/06/26 00:13:32;;;;;;;10.80;4.60;;;;;;;19.42;68.63;99255.77;25060;1318;3054704;-58
2022/06/26 00:16:03;;;;;;;7.60;3.40;;;;;;;19.42;68.63;99254.88;25077;1314;3026833;-59
2022/06/26 00:18:32;;;;;;;7.80;3.00;;;;;;;20.03;67.56;99260.14;24963;1318;3027008;-56
2022/06/26 00:21:01;;;;;;;6.30;3.80;;;;;;;20.49;65.95;99264.02;24983;1314;3026143;-58
2022/06/26 00:23:30;;;;;;;8.00;3.30;;;;;;;20.53;65.66;99266.31;24966;1317;3054170;-60
2022/06/26 00:25:59;;;;;;;8.20;3.30;;;;;;;20.29;65.98;99270.41;25072;1317;3026462;-59
2022/06/26 00:28:27;;;;;;;8.10;3.30;;;;;;;20.09;66.76;99272.18;24999;1316;3051164;-59
2022/06/26 00:30:57;;;;;;;5.30;2.90;;;;;;;19.98;67.12;99274.30;25065;1316;3026794;-57
2022/06/26 00:33:26;;;;;;;7.60;3.30;;;;;;;19.85;67.55;99279.24;24983;1316;3048097;-56
2022/06/26 00:35:55;;;;;;;5.70;3.00;;;;;;;19.70;67.73;99277.14;25062;1317;3026425;-58
2022/06/26 00:38:24;;;;;;;4.50;2.60;;;;;;;19.57;68.31;99276.48;24977;1316;3067983;-58
2022/06/26 00:40:53;;;;;;;6.10;2.60;;;;;;;19.52;68.51;99280.54;25063;1318;3026612;-57
2022/06/26 00:43:27;;;;;;;4.20;2.50;;;;;;;20.09;67.34;99280.84;25060;1318;3026481;-58
2022/06/26 00:45:56;;;;;;;4.70;2.60;;;;;;;20.58;65.48;99276.23;25006;1318;3071613;-56
2022/06/26 00:48:25;;;;;;;7.20;2.40;;;;;;;20.54;65.30;99281.02;25060;1318;3026897;-58
2022/06/26 00:50:54;;;;;;;6.80;2.70;;;;;;;20.39;65.54;99280.64;25008;1317;3050969;-58
2022/06/26 00:53:23;;;;;;;5.30;2.40;;;;;;;20.23;66.08;99278.18;25041;1318;3026793;-58
2022/06/26 00:55:52;;;;;;;4.40;2.70;;;;;;;20.01;66.38;99279.04;25009;1318;3055694;-58
2022/06/26 00:58:21;;;;;;;5.70;2.50;;;;;;;19.91;66.56;99275.09;25044;1318;3028114;-58
2022/06/26 01:00:51;;;;;;;6.70;3.20;;;;;;;19.82;66.86;99272.79;25013;1314;3049470;-59
2022/06/26 01:03:20;;;;;;;6.50;2.70;;;;;;;19.65;67.35;99276.23;25104;1314;3026187;-59
2022/06/26 01:05:50;;;;;;;8.20;3.10;;;;;;;19.59;67.21;99275.23;25069;1316;3056219;-57
2022/06/26 01:08:20;;;;;;;9.20;2.10;;;;;;;19.46;67.95;99278.53;25057;1315;3027173;-58
2022/06/26 01:10:49;;;;;;;9.60;2.10;;;;;;;19.93;67.08;99278.22;25087;1314;3026951;-57
2022/06/26 01:13:18;;;;;;;6.50;2.10;;;;;;;20.49;65.54;99273.48;25055;1314;3057935;-58
2022/06/26 01:15:47;;;;;;;6.30;2.60;;;;;;;20.53;64.82;99269.33;25024;1315;3027298;-58
2022/06/26 01:18:16;;;;;;;7.00;2.70;;;;;;;20.41;65.00;99268.30;25030;1315;3055426;-57
2022/06/26 01:20:53;;;;;;;6.30;2.70;;;;;;;20.16;65.56;99268.20;25059;1314;3026666;-60
2022/06/26 01:23:23;;;;;;;8.00;2.70;;;;;;;19.93;66.18;99263.70;25068;1318;3051430;-57
2022/06/26 01:25:52;;;;;;;6.20;2.40;;;;;;;19.79;66.53;99266.84;25018;1315;3026240;-58
2022/06/26 01:28:21;;;;;;;6.90;2.90;;;;;;;19.66;66.96;99266.38;25047;1315;3048765;-58
2022/06/26 01:30:51;;;;;;;6.20;2.70;;;;;;;19.54;67.27;99270.26;25078;1314;3026618;-58
2022/06/26 01:33:19;;;;;;;5.00;2.70;;;;;;;19.47;67.42;99268.84;24961;1314;3027115;-58
2022/06/26 01:35:49;;;;;;;4.10;1.70;;;;;;;19.40;67.70;99275.79;25076;1314;3048301;-58
2022/06/26 01:38:21;;;;;;;5.90;2.00;;;;;;;19.89;66.68;99270.36;25019;1314;3027124;-57
2022/06/26 01:40:52;;;;;;;6.90;2.60;;;;;;;20.40;65.24;99274.38;25099;1315;3026512;-58
2022/06/26 01:43:24;;;;;;;4.90;2.70;;;;;;;20.46;64.91;99265.10;25025;1315;3026578;-57
2022/06/26 01:45:54;;;;;;;10.40;2.60;;;;;;;20.35;64.92;99268.92;25064;1314;3026809;-57
2022/06/26 01:48:28;;;;;;;7.40;3.00;;;;;;;20.16;65.40;99267.02;24985;1315;3053371;-61
2022/06/26 01:50:58;;;;;;;5.70;3.40;;;;;;;20.01;65.73;99268.84;25034;1314;3026432;-61
2022/06/26 01:53:28;;;;;;;8.10;3.60;;;;;;;19.87;66.15;99266.16;25089;1314;3026833;-58
2022/06/26 01:55:57;;;;;;;8.80;4.50;;;;;;;19.70;66.84;99273.63;25056;1315;3026726;-57
2022/06/26 01:58:35;;;;;;;5.50;3.80;;;;;;;19.54;67.58;99279.26;25014;1314;3052177;-59
2022/06/26 02:01:07;;;;;;;8.70;3.50;;;;;;;19.47;67.37;99282.11;25102;1314;3027343;-58
2022/06/26 02:03:36;;;;;;;8.10;3.00;;;;;;;19.41;67.81;99282.86;25068;1318;3026521;-58
2022/06/26 02:06:06;;;;;;;3.70;3.00;;;;;;;20.01;67.12;99282.05;24985;1314;3027180;-57
2022/06/26 02:08:35;;;;;;;7.10;3.10;;;;;;;20.52;65.28;99276.73;25054;1314;3026934;-58
2022/06/26 02:13:53;;;;;;;7.00;3.10;;;;;;;20.37;65.01;99286.48;24982;1316;3052777;-58
2022/06/26 02:16:28;;;;;;;7.40;3.20;;;;;;;20.23;65.48;99291.69;25096;1314;3027124;-57
2022/06/26 02:18:58;;;;;;;4.80;3.30;;;;;;;20.12;65.68;99293.70;25054;1318;3026604;-58
2022/06/26 02:21:28;;;;;;;6.50;3.40;;;;;;;19.97;66.28;99297.51;25069;1314;3027476;-59
2022/06/26 02:24:00;;;;;;;7.20;4.20;;;;;;;19.84;66.71;99298.47;25029;1314;3027637;-57
2022/06/26 02:26:30;;;;;;;6.40;3.70;;;;;;;19.71;67.31;99303.02;25030;1314;3026432;-58
2022/06/26 02:29:00;;;;;;;7.10;3.60;;;;;;;19.63;67.41;99301.98;25053;1314;3027756;-59
2022/06/26 02:31:31;;;;;;;5.40;3.10;;;;;;;19.59;67.73;99293.31;25056;1314;3026474;-56
2022/06/26 02:34:01;;;;;;;6.50;3.40;;;;;;;20.14;66.66;99291.73;25079;1314;3026812;-58
2022/06/26 02:36:30;;;;;;;11.10;4.30;;;;;;;20.68;65.41;99288.77;25027;1316;3026141;-58
2022/06/26 02:38:59;;;;;;;8.00;4.30;;;;;;;20.72;64.84;99286.74;25049;1315;3058259;-58
2022/06/26 02:41:29;;;;;;;12.00;4.70;;;;;;;20.60;64.95;99285.91;25113;1314;3026509;-58
2022/06/26 02:43:58;;;;;;;10.80;4.70;;;;;;;20.42;65.45;99291.00;25065;1314;3026587;-58
2022/06/26 02:46:29;;;;;;;10.40;5.30;;;;;;;20.23;65.97;99289.67;25056;1314;3028417;-57
2022/06/26 02:48:58;;;;;;;11.60;5.20;;;;;;;20.09;66.43;99294.38;25033;1315;3026549;-58
2022/06/26 02:51:28;;;;;;;9.70;5.10;;;;;;;19.95;66.90;99295.41;25130;1314;3054964;-58
2022/06/26 02:53:57;;;;;;;9.10;4.90;;;;;;;19.87;66.97;99303.40;25022;1315;3028550;-57
2022/06/26 02:56:27;;;;;;;9.20;4.70;;;;;;;19.83;66.64;99302.00;25066;1315;3049521;-57
2022/06/26 02:58:56;;;;;;;8.50;5.20;;;;;;;19.78;66.69;99303.94;25018;1315;3026698;-57
2022/06/26 03:01:25;;;;;;;10.70;4.00;;;;;;;19.76;67.03;99310.32;25057;1315;3054683;-58
2022/06/26 03:03:58;;;;;;;6.70;3.90;;;;;;;20.34;66.03;99309.34;24970;1317;3026474;-58
2022/06/26 03:06:27;;;;;;;7.00;3.70;;;;;;;20.84;64.33;99317.58;25064;1315;3026343;-56
2022/06/26 03:08:56;;;;;;;5.90;3.60;;;;;;;20.91;63.55;99316.41;24999;1315;3055439;-58
2022/06/26 03:11:25;;;;;;;7.30;3.10;;;;;;;20.81;63.57;99326.02;25054;1316;3026776;-56
2022/06/26 03:13:54;;;;;;;4.60;3.00;;;;;;;20.65;63.71;99323.20;25083;1314;3051964;-58
2022/06/26 03:16:23;;;;;;;5.80;3.60;;;;;;;20.47;64.22;99328.51;25000;1315;3026753;-58
2022/06/26 03:18:52;;;;;;;6.60;3.10;;;;;;;20.33;64.59;99326.52;25036;1314;3053379;-57
2022/06/26 03:21:21;;;;;;;9.30;3.40;;;;;;;20.21;64.72;99327.59;25033;1314;3026276;-59
2022/06/26 03:24:02;;;;;;;6.50;3.40;;;;;;;20.17;64.64;99324.10;25072;1316;3051588;-57
2022/06/26 03:26:36;;;;;;;4.20;2.90;;;;;;;20.09;64.79;99321.59;25027;1314;3054521;-59
2022/06/26 03:29:08;;;;;;;7.80;3.50;;;;;;;19.99;65.11;99319.50;25096;1314;3052271;-59
2022/06/26 03:31:38;;;;;;;6.30;3.20;;;;;;;19.95;65.01;99316.94;25042;1315;3027555;-57
2022/06/26 03:34:10;;;;;;;6.30;3.00;;;;;;;19.89;65.06;99315.59;24989;1318;3027364;-55
2022/06/26 03:36:40;;;;;;;4.00;2.50;;;;;;;19.91;64.92;99314.52;25026;1315;3027366;-58
2022/06/26 03:39:11;;;;;;;7.80;3.10;;;;;;;19.94;64.67;99321.69;25038;1316;3026568;-58
2022/06/26 03:41:41;;;;;;;5.30;2.70;;;;;;;19.93;64.67;99325.63;25050;1320;3026262;-58
2022/06/26 03:44:10;;;;;;;5.10;3.20;;;;;;;19.92;64.83;99327.69;25005;1315;3026766;-56
2022/06/26 03:46:39;;;;;;;4.50;1.90;;;;;;;19.96;64.89;99326.63;25111;1314;3026859;-58
2022/06/26 03:49:10;;;;;;;11.00;2.80;;;;;;;20.56;63.65;99327.38;25113;1314;3069826;-58
2022/06/26 03:51:39;;;;;;;6.30;2.40;;;;;;;21.14;61.68;99324.34;25090;1315;3026589;-57
2022/06/26 03:54:08;;;;;;;5.00;2.60;;;;;;;21.30;61.13;99322.05;25040;1314;3026753;-57
2022/06/26 03:56:37;;;;;;;6.60;2.80;;;;;;;21.22;61.26;99325.63;25013;1315;3068368;-58
2022/06/26 03:59:06;;;;;;;7.50;3.00;;;;;;;21.11;61.60;99331.06;25057;1315;3026874;-58
2022/06/26 04:01:38;;;;;;;8.60;3.10;;;;;;;20.98;61.98;99333.53;25099;1315;3053131;-58
2022/06/26 04:04:07;;;;;;;11.60;3.70;;;;;;;20.85;62.43;99335.56;25012;1314;3026518;-58
2022/06/26 04:06:36;;;;;;;10.20;3.70;;;;;;;20.77;62.85;99335.54;25157;1314;3026952;-59
2022/06/26 04:09:11;;;;;;;6.30;4.00;;;;;;;20.72;63.04;99336.10;25091;1315;3051976;-57
2022/06/26 04:11:41;;;;;;;6.40;3.20;;;;;;;20.69;63.47;99335.86;25101;1315;3026374;-57
2022/06/26 04:14:12;;;;;;;5.40;3.80;;;;;;;20.72;62.77;99327.39;25093;1315;3026629;-57
2022/06/26 04:16:41;;;;;;;9.60;4.10;;;;;;;20.79;62.39;99323.02;25076;1314;3026443;-57
2022/06/26 04:19:11;;;;;;;11.40;3.70;;;;;;;20.86;62.00;99322.15;25061;1314;3070808;-59
2022/06/26 04:21:40;;;;;;;5.60;3.60;;;;;;;20.92;61.77;99326.35;24966;1318;3026257;-58
2022/06/26 04:24:12;;;;;;;7.70;3.90;;;;;;;20.99;61.57;99323.92;25074;1315;3053173;-57
2022/06/26 04:26:41;;;;;;;6.80;4.00;;;;;;;21.08;61.58;99323.39;24975;1317;3027376;-57
2022/06/26 04:29:10;;;;;;;10.00;3.70;;;;;;;21.13;61.22;99324.94;25051;1315;3026385;-58
2022/06/26 04:31:41;;;;;;;6.20;3.20;;;;;;;21.23;60.90;99324.65;25073;1315;3027893;-58
2022/06/26 04:34:10;;;;;;;4.80;3.30;;;;;;;21.31;60.82;99325.53;25041;1315;3026391;-58
2022/06/26 04:36:39;;;;;;;6.10;3.30;;;;;;;21.41;60.12;99329.15;25037;1314;3026610;-59
2022/06/26 04:39:08;;;;;;;4.00;3.00;;;;;;;21.43;59.81;99325.64;25088;1315;3052247;-58
2022/06/26 04:41:39;;;;;;;5.70;3.00;;;;;;;21.48;60.04;99326.41;25026;1317;3027209;-58
2022/06/26 04:44:10;;;;;;;5.30;3.40;;;;;;;21.41;60.26;99327.71;25066;1314;3026861;-57
2022/06/26 04:46:40;;;;;;;6.00;3.10;;;;;;;21.47;60.16;99334.70;25083;1314;3026937;-59
2022/06/26 04:49:09;;;;;;;8.60;2.90;;;;;;;21.52;59.43;99338.04;25062;1315;3026812;-56
2022/06/26 04:51:38;;;;;;;7.90;3.10;;;;;;;21.58;59.46;99339.09;25039;1318;3025934;-58
2022/06/26 04:54:23;;;;;;;6.50;2.90;;;;;;;21.60;59.49;99341.17;25051;1315;3050147;-59
2022/06/26 04:56:52;;;;;;;6.40;3.30;;;;;;;21.59;59.85;99341.58;25068;1316;3026368;-59
2022/06/26 04:59:21;;;;;;;10.30;3.60;;;;;;;21.67;59.72;99336.69;25022;1316;3057600;-58
2022/06/26 05:01:51;;;;;;;9.30;3.80;;;;;;;21.72;60.03;99335.55;25133;1314;3026467;-58
2022/06/26 05:04:43;;;;;;;7.40;3.50;;;;;;;21.78;59.51;99334.72;25045;1318;3054649;-59
2022/06/26 05:07:29;;;;;;;5.40;3.00;;;;;;;21.82;59.04;99333.42;25047;1317;3059581;-56
2022/06/26 05:09:58;;;;;;;5.60;3.40;;;;;;;21.89;59.34;99332.48;25017;1315;3026425;-57
2022/06/26 05:12:27;;;;;;;5.60;3.50;;;;;;;21.87;59.68;99333.56;25018;1314;3026916;-56
2022/06/26 05:15:29;;;;;;;6.90;4.10;;;;;;;21.89;59.78;99332.09;24993;1320;3054088;-58
2022/06/26 05:17:58;;;;;;;7.40;3.80;;;;;;;21.93;59.39;99333.83;25037;1314;3026621;-55
2022/06/26 05:20:27;;;;;;;6.20;3.50;;;;;;;22.02;59.26;99336.41;25054;1315;3055610;-56
2022/06/26 05:22:56;;;;;;;6.00;3.70;;;;;;;22.12;58.89;99334.91;25031;1314;3026535;-58
2022/06/26 05:25:25;;;;;;;5.70;3.50;;;;;;;22.08;59.34;99339.42;25024;1315;3049213;-57
2022/06/26 05:27:54;;;;;;;7.20;3.70;;;;;;;22.15;58.99;99339.06;25087;1314;3028754;-58
2022/06/26 05:30:25;;;;;;;9.70;3.70;;;;;;;22.23;59.05;99342.65;25124;1315;3056244;-57
2022/06/26 05:32:56;;;;;;;7.60;3.60;;;;;;;22.19;59.22;99345.36;25019;1318;3028322;-59
2022/06/26 05:35:28;;;;;;;4.60;3.40;;;;;;;22.17;59.51;99349.02;25023;1314;3027032;-57
2022/06/26 05:37:56;;;;;;;8.30;3.70;;;;;;;22.24;59.07;99350.40;25081;1316;3026543;-58
2022/06/26 05:40:27;;;;;;;6.90;3.30;;;;;;;22.20;59.45;99345.66;25029;1315;3049904;-59
2022/06/26 05:42:57;;;;;;;8.10;3.50;;;;;;;22.23;59.59;99340.13;25076;1321;3026354;-57
2022/06/26 05:45:27;;;;;;;6.60;3.30;;;;;;;22.34;59.13;99343.93;25050;1315;3027041;-57
2022/06/26 05:48:26;;;;;;;9.30;3.50;;;;;;;22.41;59.44;99344.16;25010;1315;3069031;-58
2022/06/26 05:51:13;;;;;;;6.00;3.60;;;;;;;22.44;59.50;99347.38;25013;1314;3051592;-57
2022/06/26 05:54:18;;;;;;;5.70;3.60;;;;;;;22.50;59.18;99348.80;24532;1323;3550248;-59
2022/06/26 05:57:13;;;;;;;9.30;3.60;;;;;;;22.54;59.43;99346.86;25063;1315;3055093;-58
2022/06/26 05:59:49;;;;;;;5.60;3.50;;;;;;;22.60;58.94;99349.97;25054;1315;3058610;-57
2022/06/26 06:02:47;;;;;;;7.20;3.70;;;;;;;22.67;58.89;99349.73;25151;1314;3049934;-57
2022/06/26 06:05:19;;;;;;;7.00;3.40;;;;;;;22.74;58.59;99345.78;25152;1315;3026538;-57
2022/06/26 06:07:48;;;;;;;8.20;3.70;;;;;;;22.82;58.40;99350.91;25011;1314;3026604;-58
2022/06/26 06:10:19;;;;;;;8.00;4.10;;;;;;;22.84;58.82;99348.27;25059;1314;3048071;-58
2022/06/26 06:12:49;;;;;;;8.20;3.30;;;;;;;22.90;58.46;99347.91;25079;1315;3026801;-57
2022/06/26 06:15:19;;;;;;;6.20;3.40;;;;;;;22.95;58.03;99343.63;25006;1314;3026307;-60
2022/06/26 06:17:49;;;;;;;5.80;3.70;;;;;;;22.96;57.76;99338.83;25080;1315;3052002;-58
2022/06/26 06:20:20;;;;;;;7.80;3.50;;;;;;;23.03;57.53;99334.05;25052;1317;3027533;-59
2022/06/26 06:22:53;;;;;;;8.90;4.00;;;;;;;23.10;57.47;99338.33;25051;1315;3026661;-59
2022/06/26 06:25:23;;;;;;;6.70;3.50;;;;;;;23.12;57.54;99337.91;25058;1319;3026938;-59
2022/06/26 06:27:52;;;;;;;5.70;3.40;;;;;;;23.19;57.75;99341.67;25004;1317;3027373;-57
2022/06/26 06:30:24;;;;;;;8.20;3.30;;;;;;;23.30;57.45;99343.23;25020;1315;3053759;-60
2022/06/26 06:32:54;;;;;;;7.40;3.40;;;;;;;23.39;56.55;99347.36;25014;1317;3027317;-59
2022/06/26 06:35:36;;;;;;;7.30;3.20;;;;;;;23.48;56.24;99351.35;25022;1315;3052058;-59
2022/06/26 06:38:05;;;;;;;6.80;3.00;;;;;;;23.57;56.00;99352.44;25036;1314;3028884;-58
2022/06/26 06:40:35;;;;;;;7.70;3.60;;;;;;;23.62;55.64;99355.59;25036;1316;3026793;-59
2022/06/26 06:43:09;;;;;;;10.70;4.40;;;;;;;23.61;55.48;99357.54;25041;1315;3026417;-60
2022/06/26 06:45:56;;;;;;;7.10;3.60;;;;;;;23.65;55.31;99356.88;25095;1315;3052929;-59
2022/06/26 06:48:26;;;;;;;5.80;3.30;;;;;;;23.74;55.05;99358.42;25014;1320;3026555;-58
2022/06/26 06:51:21;;;;;;;7.00;3.40;;;;;;;23.84;54.84;99353.27;25016;1316;3058601;-58
2022/06/26 06:53:50;;;;;;;11.10;3.60;;;;;;;23.89;54.62;99359.65;25030;1315;3026710;-60
2022/06/26 06:56:19;;;;;;;8.80;3.20;;;;;;;23.89;54.66;99359.56;25055;1314;3054638;-57
2022/06/26 06:58:48;;;;;;;5.10;3.00;;;;;;;23.98;54.11;99354.95;25041;1315;3026555;-58
2022/06/26 07:01:17;;;;;;;6.10;3.40;;;;;;;24.07;54.05;99351.75;25064;1315;3052025;-60
2022/06/26 07:03:46;;;;;;;5.80;2.90;;;;;;;24.11;54.31;99353.23;25004;1314;3027067;-58
2022/06/26 07:06:16;;;;;;;6.50;3.20;;;;;;;24.10;54.18;99354.09;24972;1315;3026453;-60
2022/06/26 07:08:45;;;;;;;5.60;3.30;;;;;;;24.18;54.13;99355.11;25004;1315;3054582;-59
2022/06/26 07:11:14;;;;;;;6.20;3.10;;;;;;;24.24;53.71;99347.78;24995;1314;3027877;-58
2022/06/26 07:13:43;;;;;;;4.60;3.00;;;;;;;24.29;53.93;99344.30;25053;1315;3050163;-60
2022/06/26 07:16:16;;;;;;;5.10;3.10;;;;;;;24.43;53.04;99344.43;25066;1315;3026357;-61
2022/06/26 07:18:46;;;;;;;4.80;3.10;;;;;;;24.57;52.70;99346.14;25035;1315;3026929;-61
2022/06/26 07:21:15;;;;;;;6.10;3.00;;;;;;;24.66;52.10;99350.13;25007;1315;3026835;-57
2022/06/26 07:23:45;;;;;;;6.50;3.10;;;;;;;24.85;51.46;99347.77;25018;1315;3026454;-58
2022/06/26 07:26:29;;;;;;;4.30;2.80;;;;;;;25.01;51.35;99347.65;25008;1315;3055153;-58
2022/06/26 07:28:59;;;;;;;9.90;2.70;;;;;;;25.15;51.25;99346.11;25064;1315;3026614;-58
2022/06/26 07:31:32;;;;;;;10.20;2.90;;;;;;;25.29;50.69;99344.48;25048;1314;3026573;-56
2022/06/26 07:34:15;;;;;;;8.90;2.80;;;;;;;25.29;49.69;99346.20;25015;1319;3026709;-57
2022/06/26 07:36:46;;;;;;;7.10;2.90;;;;;;;25.36;49.77;99347.79;24935;1315;3052344;-58
2022/06/26 07:39:16;;;;;;;9.60;2.70;;;;;;;25.46;49.88;99350.65;25038;1317;3026314;-58
2022/06/26 07:41:46;;;;;;;6.40;2.80;;;;;;;25.57;49.62;99348.92;25053;1318;3026610;-59
2022/06/26 07:44:15;;;;;;;4.50;2.50;;;;;;;25.60;48.58;99349.27;25009;1315;3028159;-59
2022/06/26 07:46:45;;;;;;;4.60;2.90;;;;;;;25.71;48.45;99342.51;25064;1315;3026194;-59
2022/06/26 07:49:18;;;;;;;4.60;3.00;;;;;;;25.83;48.65;99339.73;25032;1314;3026865;-57
2022/06/26 07:51:48;;;;;;;4.00;2.90;;;;;;;25.90;48.86;99341.03;25068;1315;3026715;-57
2022/06/26 07:54:17;;;;;;;5.30;2.60;;;;;;;25.92;48.40;99334.95;25090;1315;3054696;-57
2022/06/26 07:56:48;;;;;;;8.80;2.80;;;;;;;25.98;48.28;99333.94;25018;1314;3026503;-57
2022/06/26 07:59:17;;;;;;;3.80;2.40;;;;;;;25.93;48.37;99339.15;25067;1314;3054726;-57
2022/06/26 08:01:46;;;;;;;6.00;2.80;;;;;;;25.92;47.75;99334.63;25041;1314;3026572;-62
2022/06/26 08:04:15;;;;;;;5.30;2.60;;;;;;;25.84;47.80;99339.33;25091;1315;3052849;-59
2022/06/26 08:06:44;;;;;;;7.10;3.00;;;;;;;25.77;47.99;99344.29;25024;1314;3026921;-58
2022/06/26 08:09:13;;;;;;;15.10;2.90;;;;;;;25.91;48.09;99345.59;25025;1315;3071047;-58
2022/06/26 08:11:43;;;;;;;4.50;2.90;;;;;;;26.05;47.25;99342.33;25079;1315;3026853;-59
2022/06/26 08:14:12;;;;;;;4.70;2.90;;;;;;;25.96;47.16;99337.02;25055;1314;3026682;-58
2022/06/26 08:16:41;;;;;;;9.20;3.20;;;;;;;25.79;47.59;99339.74;25053;1316;3070416;-59
2022/06/26 08:19:10;;;;;;;7.50;3.40;;;;;;;26.02;47.74;99337.52;25027;1314;3026854;-56
2022/06/26 08:24:28;;;;;;;6.60;2.90;;;;;;;26.34;46.91;99341.54;25054;1315;3071299;-58
2022/06/26 08:26:59;;;;;;;5.00;2.60;;;;;;;26.51;46.32;99343.63;25049;1314;3028809;-55
2022/06/26 08:29:28;;;;;;;6.10;2.80;;;;;;;26.71;45.79;99344.46;25075;1315;3026687;-58
2022/06/26 08:31:57;;;;;;;6.60;2.90;;;;;;;26.85;45.35;99344.11;25081;1314;3026667;-58
2022/06/26 08:34:26;;;;;;;5.20;3.10;;;;;;;26.86;44.87;99345.04;25032;1315;3026648;-59
2022/06/26 08:36:55;;;;;;;5.60;2.80;;;;;;;26.93;45.16;99346.95;25088;1315;3052645;-60
2022/06/26 08:39:24;;;;;;;6.20;2.30;;;;;;;26.93;44.98;99347.33;25042;1314;3026307;-59
2022/06/26 08:41:54;;;;;;;3.80;2.30;;;;;;;26.99;44.73;99344.32;25076;1314;3048854;-59
2022/06/26 08:44:25;;;;;;;5.20;2.70;;;;;;;27.13;44.71;99345.52;25117;1314;3027537;-59
2022/06/26 08:46:54;;;;;;;4.20;2.70;;;;;;;27.17;44.06;99336.89;25050;1315;3027056;-58
2022/06/26 08:49:24;;;;;;;13.10;3.20;;;;;;;27.10;44.30;99337.05;25024;1315;3026892;-58
2022/06/26 08:51:53;;;;;;;6.30;2.60;;;;;;;27.04;44.63;99334.75;25074;1315;3026727;-59
2022/06/26 08:54:22;;;;;;;5.70;3.00;;;;;;;27.13;44.64;99331.74;25012;1314;3026450;-59
2022/06/26 08:56:51;;;;;;;4.00;2.40;;;;;;;27.25;44.06;99337.08;25020;1315;3026839;-59
2022/06/26 08:59:20;;;;;;;3.30;2.10;;;;;;;27.28;43.92;99335.88;25050;1318;3051650;-60
2022/06/26 09:01:49;;;;;;;6.70;2.60;;;;;;;27.27;43.93;99330.41;25038;1315;3026065;-57
2022/06/26 09:04:18;;;;;;;6.10;2.90;;;;;;;27.27;44.27;99332.38;25100;1314;3055257;-59
2022/06/26 09:06:47;;;;;;;5.60;2.70;;;;;;;27.31;44.39;99331.06;25042;1314;3026611;-57
2022/06/26 09:09:25;;;;;;;11.10;2.60;;;;;;;27.43;43.91;99332.10;25062;1315;3054069;-58
2022/06/26 09:12:00;;;;;;;3.40;2.40;;;;;;;27.55;43.42;99329.80;25052;1314;3059004;-56
2022/06/26 09:14:29;;;;;;;3.20;2.40;;;;;;;27.81;43.17;99321.89;25081;1314;3050053;-61
2022/06/26 09:16:58;;;;;;;5.80;3.10;;;;;;;27.97;42.81;99322.29;25049;1314;3027346;-59
2022/06/26 09:19:36;;;;;;;5.70;3.20;;;;;;;28.10;42.68;99319.91;25077;1314;3027016;-56
2022/06/26 09:22:10;;;;;;;6.20;3.00;;;;;;;28.18;42.43;99319.20;25089;1314;3050171;-56
2022/06/26 09:24:40;;;;;;;3.20;2.40;;;;;;;28.23;42.24;99318.55;25119;1314;3053051;-59
2022/06/26 09:27:13;;;;;;;5.60;2.70;;;;;;;28.18;42.32;99313.21;25052;1314;3026916;-59
2022/06/26 09:29:55;;;;;;;8.00;2.50;;;;;;;28.19;42.56;99313.95;25053;1315;3026958;-59
2022/06/26 09:32:24;;;;;;;5.50;2.80;;;;;;;28.30;42.63;99307.69;25029;1315;3048997;-60
2022/06/26 09:34:54;;;;;;;7.20;3.10;;;;;;;28.42;42.65;99306.11;25097;1315;3026461;-59
2022/06/26 09:37:23;;;;;;;3.80;2.50;;;;;;;28.54;41.98;99293.45;25093;1314;3026412;-61
2022/06/26 09:40:03;;;;;;;4.10;2.30;;;;;;;28.66;40.99;99296.55;25012;1314;3027572;-59
2022/06/26 09:42:33;;;;;;;7.90;2.80;;;;;;;28.92;40.62;99298.08;24999;1315;3051693;-61
2022/06/26 09:45:03;;;;;;;6.10;3.00;;;;;;;29.11;40.66;99295.27;25118;1314;3026754;-62
2022/06/26 09:47:36;;;;;;;8.40;4.10;;;;;;;29.05;40.85;99298.70;25060;1314;3027124;-62
2022/06/26 09:50:07;;;;;;;5.80;3.90;;;;;;;28.80;41.61;99296.40;25102;1314;3028339;-59
2022/06/26 09:52:36;;;;;;;9.60;3.60;;;;;;;28.97;41.67;99296.88;25073;1314;3026693;-61
2022/06/26 09:55:06;;;;;;;7.60;3.30;;;;;;;29.20;41.37;99292.94;25068;1314;3026239;-62
2022/06/26 09:57:36;;;;;;;5.70;3.50;;;;;;;29.36;40.74;99299.39;25060;1314;3068607;-59
2022/06/26 10:00:06;;;;;;;5.60;3.00;;;;;;;29.24;40.30;99290.05;25103;1314;3028497;-60
2022/06/26 10:08:19;;;;;;;9.30;2.80;;;;;;;29.42;38.85;99286.89;25030;1315;3059166;-59
2022/06/26 10:10:48;;;;;;;4.60;2.60;;;;;;;29.46;39.36;99287.65;25047;1316;3027061;-61
2022/06/26 10:13:17;;;;;;;4.00;3.00;;;;;;;29.47;39.44;99281.22;25020;1314;3053136;-63
2022/06/26 10:16:10;;;;;;;8.40;2.80;;;;;;;29.53;39.22;99280.80;25078;1314;3026412;-62
2022/06/26 10:18:49;;;;;;;4.10;2.80;;;;;;;29.65;38.85;99286.41;25071;1314;3053046;-60
2022/06/26 10:21:18;;;;;;;4.30;2.40;;;;;;;29.74;38.27;99282.69;25038;1314;3055328;-61
2022/06/26 10:23:47;;;;;;;5.60;2.70;;;;;;;29.88;37.54;99280.27;25029;1315;3026410;-62
2022/06/26 10:26:18;;;;;;;5.00;2.20;;;;;;;29.98;37.41;99277.34;25056;1315;3051624;-61
2022/06/26 10:28:57;;;;;;;5.60;2.40;;;;;;;30.02;37.04;99280.80;25136;1314;3026487;-67
2022/06/26 10:31:29;;;;;;;7.70;2.50;;;;;;;29.98;37.04;99281.60;25046;1314;3053726;-62
2022/06/26 10:34:31;;;;;;;5.60;2.70;;;;;;;30.17;37.17;99279.52;25013;1314;3026716;-66
2022/06/26 10:37:10;;;;;;;5.60;2.30;;;;;;;30.20;37.42;99280.45;24949;1315;3052148;-62
2022/06/26 10:39:43;;;;;;;5.90;2.10;;;;;;;30.34;37.35;99279.81;25107;1314;3052480;-60
2022/06/26 10:42:53;;;;;;;7.20;2.00;;;;;;;30.45;36.37;99280.48;25037;1314;3026855;-63
2022/06/26 10:45:29;;;;;;;5.60;2.60;;;;;;;30.48;36.09;99276.67;25004;1314;3058026;-62
2022/06/26 10:48:00;;;;;;;11.20;2.70;;;;;;;30.57;35.74;99278.77;25038;1314;3052227;-61
2022/06/26 10:50:33;;;;;;;6.80;2.50;;;;;;;30.54;35.24;99278.73;25092;1314;3028752;-62
2022/06/26 10:53:12;;;;;;;6.80;2.50;;;;;;;30.42;35.43;99274.14;25002;1314;3026318;-59
2022/06/26 10:55:44;;;;;;;5.40;2.00;;;;;;;30.41;34.83;99278.23;25038;1314;3069318;-62
2022/06/26 10:58:37;;;;;;;14.60;2.00;;;;;;;30.49;34.78;99277.63;25075;1314;3027289;-64
2022/06/26 11:01:07;;;;;;;6.70;2.30;;;;;;;30.66;34.04;99282.60;25065;1314;3054982;-61
2022/06/26 11:03:38;;;;;;;9.60;2.10;;;;;;;30.88;33.31;99277.05;25064;1314;3026050;-61
2022/06/26 11:06:14;;;;;;;4.10;2.10;;;;;;;31.07;33.51;99278.37;25046;1314;3026751;-62
2022/06/26 11:08:51;;;;;;;4.00;2.00;;;;;;;31.13;33.39;99274.36;25040;1314;3049636;-62
2022/06/26 11:11:23;;;;;;;4.80;2.40;;;;;;;31.26;33.46;99272.78;25027;1315;3055430;-61
2022/06/26 11:14:02;;;;;;;5.70;2.40;;;;;;;31.13;33.87;99275.52;25067;1314;3026602;-62
2022/06/26 11:16:37;;;;;;;4.80;2.00;;;;;;;31.02;34.30;99282.77;25035;1314;3069646;-60
2022/06/26 11:19:20;;;;;;;7.20;2.60;;;;;;;30.97;34.52;99282.09;25077;1315;3049976;-64
2022/06/26 11:21:49;;;;;;;4.70;2.70;;;;;;;31.03;34.35;99285.48;25101;1313;3052880;-63
2022/06/26 11:24:18;;;;;;;5.40;2.50;;;;;;;31.02;34.10;99286.11;25057;1313;3026871;-60
2022/06/26 11:26:47;;;;;;;8.00;2.50;;;;;;;30.84;33.83;99281.72;25090;1313;3048383;-64
2022/06/26 11:29:16;;;;;;;5.20;2.20;;;;;;;30.70;34.32;99279.17;25038;1315;3026952;-61
2022/06/26 11:31:48;;;;;;;6.60;2.60;;;;;;;30.68;34.37;99278.52;25067;1315;3070922;-61
2022/06/26 11:34:18;;;;;;;6.40;2.50;;;;;;;30.74;34.74;99278.29;25046;1315;3027887;-62
2022/06/26 11:36:55;;;;;;;6.70;2.80;;;;;;;30.69;34.79;99281.20;25135;1315;3026728;-63
2022/06/26 11:39:45;;;;;;;6.40;2.50;;;;;;;30.55;35.59;99282.13;25063;1312;3069049;-61
2022/06/26 11:42:15;;;;;;;8.00;2.60;;;;;;;30.51;35.75;99285.30;25126;1314;3049660;-60
2022/06/26 11:44:52;;;;;;;8.10;2.70;;;;;;;30.33;36.39;99282.33;25079;1313;3026879;-65
2022/06/26 11:47:21;;;;;;;10.80;3.10;;;;;;;30.32;36.75;99286.92;25061;1315;3052850;-62
2022/06/26 11:49:50;;;;;;;14.50;3.80;;;;;;;30.29;36.77;99286.88;25104;1314;3026709;-60